Brandon, Florida
Current Conditions -  °F | °C
As of 5:55 PM on Wednesday 22 Oct 2014 (Local Time) from KVDF Reporting Station
Clear Clear  
Wind Chill: 82°   Ceiling: Unl
Heat Index: 83°   Visibility: 10mi
Dew Point: 61°   Wind: 0mph
Humidity: 48%   Direction: NA
Pressure: 29.93"   Gusts: NA
Location:  27.94°N, 82.32°W
Report Text: KVDF 222155Z AUTO 00000KT 10SM CLR 28/16 A2993 RMK AO2
Loading
Personal Weather Stations






























Interactive Weather Map
Tropical Storm Tracking
New forecast layout! Learn more

10-Day Weather Forecast

Advertisements
Track Severe Weather on mobile